Time;durP1;ratioP1;P1;durP2;ratioP2;P2;SDS_P1;SDS_P2;PMS_P1;PMS_P2;Temp;Humidity;BMP_temperature;BMP_pressure;BME280_temperature;BME280_humidity;BME280_pressure;Samples;Min_cycle;Max_cycle;Signal;HPM_P1;HPM_P2
2024/01/19 00:00:42;;;;;;;;;37.75;27.00;;;;;-2.29;93.47;99279.73;113134;239;38961;-54
2024/01/19 00:03:39;;;;;;;;;39.25;28.00;;;;;-2.32;93.48;99287.77;113109;239;39154;-51
2024/01/19 00:06:16;;;;;;;;;44.33;29.67;;;;;-2.37;93.50;99297.49;113079;240;38996;-51
2024/01/19 00:08:52;;;;;;;;;43.00;30.00;;;;;-2.40;93.46;99304.67;113109;239;39877;-49
2024/01/19 00:11:29;;;;;;;;;37.33;26.00;;;;;-2.46;93.42;99314.14;113100;239;39867;-49
2024/01/19 00:14:07;;;;;;;;;35.50;24.75;;;;;-2.54;93.49;99315.09;113084;240;39271;-53
2024/01/19 00:16:45;;;;;;;;;42.50;28.50;;;;;-2.62;93.50;99318.52;113110;239;40234;-52
2024/01/19 00:19:23;;;;;;;;;39.50;27.50;;;;;-2.63;93.66;99322.03;113107;240;39223;-53
2024/01/19 00:22:05;;;;;;;;;42.00;29.00;;;;;-2.62;93.69;99327.88;113149;240;40997;-50
2024/01/19 00:24:41;;;;;;;;;35.75;25.50;;;;;-2.58;93.90;99337.63;113177;239;39796;-49
2024/01/19 00:27:23;;;;;;;;;42.00;29.00;;;;;-2.48;94.03;99338.37;113164;239;40765;-54
2024/01/19 00:30:02;;;;;;;;;42.75;29.00;;;;;-2.41;94.18;99348.06;113138;239;39199;-54
2024/01/19 00:32:42;;;;;;;;;46.00;30.50;;;;;-2.33;94.39;99352.88;113186;240;40084;-49
2024/01/19 00:35:19;;;;;;;;;37.00;28.00;;;;;-2.29;94.58;99361.35;113075;240;39924;-49
2024/01/19 00:38:00;;;;;;;;;30.25;22.75;;;;;-2.21;94.68;99364.72;113163;239;40012;-54
2024/01/19 00:40:38;;;;;;;;;28.00;18.00;;;;;-2.22;94.80;99368.86;113086;239;39522;-54
2024/01/19 00:43:17;;;;;;;;;33.25;23.00;;;;;-2.23;94.82;99373.88;113144;239;40444;-49
2024/01/19 00:46:03;;;;;;;;;24.50;18.25;;;;;-2.23;94.71;99373.82;113126;238;40879;-50
2024/01/19 00:48:42;;;;;;;;;25.25;19.75;;;;;-2.18;94.62;99385.90;113127;238;41018;-54
2024/01/19 00:51:20;;;;;;;;;32.67;22.00;;;;;-2.17;94.59;99391.83;113092;238;39829;-54
2024/01/19 00:54:00;;;;;;;;;24.00;19.00;;;;;-2.15;94.66;99395.41;113074;239;40918;-51
2024/01/19 00:56:39;;;;;;;;;25.75;18.25;;;;;-2.20;94.67;99395.66;113135;238;38760;-53
2024/01/19 00:59:15;;;;;;;;;29.50;17.50;;;;;-2.22;94.73;99407.11;113093;238;41298;-52
2024/01/19 01:01:55;;;;;;;;;21.50;15.00;;;;;-2.23;94.78;99420.42;113168;238;39807;-53
2024/01/19 01:04:32;;;;;;;;;27.00;20.00;;;;;-2.22;94.76;99427.02;113142;238;39239;-54
2024/01/19 01:07:08;;;;;;;;;31.00;20.50;;;;;-2.25;94.76;99427.41;113150;238;39179;-50
2024/01/19 01:09:44;;;;;;;;;28.25;20.50;;;;;-2.22;94.74;99427.52;113155;238;39170;-50
2024/01/19 01:12:44;;;;;;;;;26.25;17.50;;;;;-2.19;94.78;99429.73;113175;238;39570;-52
2024/01/19 01:15:53;;;;;;;;;29.00;20.67;;;;;-2.18;94.81;99432.67;113173;238;40044;-53
2024/01/19 01:18:31;;;;;;;;;31.50;22.00;;;;;-2.21;94.80;99439.09;113148;238;40587;-52
2024/01/19 01:21:07;;;;;;;;;34.00;23.00;;;;;-2.19;94.76;99449.46;113124;238;39046;-52
2024/01/19 01:23:43;;;;;;;;;31.00;21.25;;;;;-2.14;94.77;99452.58;113157;238;39349;-54
2024/01/19 01:26:26;;;;;;;;;32.00;22.00;;;;;-2.15;94.66;99457.21;113097;238;39872;-54
2024/01/19 01:29:04;;;;;;;;;29.00;21.75;;;;;-2.13;94.76;99459.44;113117;238;39206;-54
2024/01/19 01:31:42;;;;;;;;;34.50;24.00;;;;;-2.07;94.71;99461.48;113121;238;39185;-53
2024/01/19 01:34:19;;;;;;;;;28.50;19.00;;;;;-2.04;94.63;99460.55;113048;239;41577;-54
2024/01/19 01:36:59;;;;;;;;;27.00;19.00;;;;;-2.09;94.49;99463.57;113134;238;39952;-51
2024/01/19 01:39:40;;;;;;;;;30.50;23.00;;;;;-2.16;94.59;99464.06;113097;238;40532;-51
2024/01/19 01:42:20;;;;;;;;;20.75;14.75;;;;;-2.14;94.47;99473.88;113134;238;39727;-54
2024/01/19 01:45:01;;;;;;;;;22.33;16.00;;;;;-2.22;94.41;99480.23;113123;238;39803;-54
2024/01/19 01:47:37;;;;;;;;;21.50;15.50;;;;;-2.27;94.27;99482.77;113139;238;40607;-54
2024/01/19 01:50:19;;;;;;;;;14.50;9.00;;;;;-2.27;94.15;99486.47;113162;239;39320;-54
2024/01/19 01:52:57;;;;;;;;;19.75;14.50;;;;;-2.29;94.00;99496.92;113133;238;39482;-54
2024/01/19 01:55:39;;;;;;;;;15.00;11.00;;;;;-2.43;93.93;99505.91;113111;238;40136;-55
2024/01/19 01:58:13;;;;;;;;;19.00;13.00;;;;;-2.45;94.07;99509.72;113150;238;40765;-51
2024/01/19 02:00:53;;;;;;;;;15.67;11.33;;;;;-2.45;93.93;99513.23;113157;238;40501;-51
2024/01/19 02:03:29;;;;;;;;;18.67;13.00;;;;;-2.44;93.96;99520.96;113130;238;40311;-54
2024/01/19 02:06:05;;;;;;;;;20.25;14.00;;;;;-2.43;94.01;99525.94;113128;239;39134;-55
2024/01/19 02:08:44;;;;;;;;;17.50;13.25;;;;;-2.47;93.94;99533.34;113146;238;39263;-49
2024/01/19 02:11:19;;;;;;;;;21.00;14.25;;;;;-2.46;93.90;99534.70;113157;238;39798;-49
2024/01/19 02:13:57;;;;;;;;;21.00;14.75;;;;;-2.48;93.85;99531.88;113141;238;40623;-51
2024/01/19 02:16:33;;;;;;;;;15.25;10.75;;;;;-2.49;93.85;99532.45;113178;238;39326;-50
2024/01/19 02:19:13;;;;;;;;;17.00;12.00;;;;;-2.45;93.78;99532.63;113089;238;41295;-50
2024/01/19 02:21:52;;;;;;;;;15.50;11.00;;;;;-2.57;93.74;99539.16;113144;238;39379;-53
2024/01/19 02:24:27;;;;;;;;;20.00;14.00;;;;;-2.62;93.64;99542.90;113097;238;40116;-53
2024/01/19 02:27:06;;;;;;;;;18.00;13.00;;;;;-2.65;93.63;99547.02;113138;239;39680;-51
2024/01/19 02:29:51;;;;;;;;;15.00;11.00;;;;;-2.63;93.70;99552.86;113172;239;40214;-51
2024/01/19 02:32:28;;;;;;;;;12.50;9.50;;;;;-2.61;93.66;99554.46;113150;238;39575;-52
2024/01/19 02:35:05;;;;;;;;;13.25;10.00;;;;;-2.61;93.65;99555.02;113145;238;39664;-51
2024/01/19 02:37:44;;;;;;;;;15.50;9.50;;;;;-2.60;93.54;99561.98;113160;238;40892;-53
2024/01/19 02:40:23;;;;;;;;;22.00;15.00;;;;;-2.67;93.67;99569.38;113113;238;39355;-53
2024/01/19 02:43:01;;;;;;;;;20.00;13.67;;;;;-2.63;93.69;99568.02;113172;238;40165;-53
2024/01/19 02:45:40;;;;;;;;;15.75;10.75;;;;;-2.58;93.60;99576.61;113145;239;38948;-53
2024/01/19 02:48:20;;;;;;;;;18.00;12.00;;;;;-2.61;93.60;99588.15;113144;238;39109;-51
2024/01/19 02:50:56;;;;;;;;;18.25;13.00;;;;;-2.65;93.57;99593.23;113156;238;40006;-51
2024/01/19 02:53:38;;;;;;;;;12.50;8.50;;;;;-2.75;93.54;99592.62;113133;238;39234;-50
2024/01/19 02:56:20;;;;;;;;;19.00;11.00;;;;;-2.77;93.65;99601.97;113116;238;39256;-50
2024/01/19 02:59:04;;;;;;;;;18.75;10.75;;;;;-2.78;93.78;99602.27;113115;238;39272;-51
2024/01/19 03:01:45;;;;;;;;;14.00;10.00;;;;;-2.73;93.71;99603.36;113155;238;41119;-50
2024/01/19 03:04:23;;;;;;;;;24.00;15.00;;;;;-2.71;93.63;99603.18;113123;238;39294;-49
2024/01/19 03:07:07;;;;;;;;;18.00;11.00;;;;;-2.73;93.72;99610.46;113118;238;39167;-53
2024/01/19 03:09:43;;;;;;;;;14.25;10.00;;;;;-2.71;93.72;99608.52;113114;238;39882;-53
2024/01/19 03:12:20;;;;;;;;;19.00;15.00;;;;;-2.71;93.66;99611.88;113158;238;39818;-52
2024/01/19 03:14:55;;;;;;;;;20.00;14.00;;;;;-2.75;93.64;99610.79;113103;238;39276;-52
2024/01/19 03:17:35;;;;;;;;;16.00;11.00;;;;;-2.74;93.59;99614.20;113126;238;39931;-53
2024/01/19 03:20:13;;;;;;;;;20.25;13.25;;;;;-2.70;93.60;99623.63;113100;238;39235;-54
2024/01/19 03:22:48;;;;;;;;;22.25;14.00;;;;;-2.68;93.61;99631.21;113147;238;39551;-54
2024/01/19 03:25:30;;;;;;;;;20.75;11.75;;;;;-2.70;93.59;99626.73;113133;238;39346;-55
2024/01/19 03:28:05;;;;;;;;;21.75;14.75;;;;;-2.71;93.64;99629.64;113170;238;39267;-50
2024/01/19 03:30:43;;;;;;;;;18.00;14.00;;;;;-2.74;93.62;99633.80;113158;238;39517;-50
2024/01/19 03:33:20;;;;;;;;;18.25;12.25;;;;;-2.74;93.73;99638.35;113163;238;39240;-53
2024/01/19 03:35:59;;;;;;;;;19.00;14.00;;;;;-2.72;93.73;99643.08;113108;238;39727;-54
2024/01/19 03:38:35;;;;;;;;;17.25;13.00;;;;;-2.69;93.64;99652.22;113182;238;40608;-54
2024/01/19 03:41:10;;;;;;;;;12.25;9.25;;;;;-2.72;93.40;99662.55;113156;239;39575;-53
2024/01/19 03:43:47;;;;;;;;;21.00;14.00;;;;;-2.74;93.55;99665.99;113198;238;39999;-54
2024/01/19 03:46:22;;;;;;;;;16.25;12.00;;;;;-2.73;93.50;99675.11;113175;238;41313;-54
2024/01/19 03:48:59;;;;;;;;;15.75;10.00;;;;;-2.74;93.36;99680.82;113125;238;39669;-50
2024/01/19 03:51:34;;;;;;;;;14.33;10.67;;;;;-2.80;93.40;99685.72;113148;238;39885;-51
2024/01/19 03:54:12;;;;;;;;;18.50;13.00;;;;;-2.78;93.31;99693.32;113152;238;39689;-52
2024/01/19 03:56:52;;;;;;;;;18.00;13.00;;;;;-2.80;93.15;99700.17;113115;238;40878;-53
2024/01/19 03:59:27;;;;;;;;;21.50;14.00;;;;;-2.81;93.30;99709.91;113112;238;39194;-54
2024/01/19 04:02:05;;;;;;;;;18.25;12.75;;;;;-2.77;93.27;99709.48;113118;238;40579;-49
2024/01/19 04:04:43;;;;;;;;;17.00;11.25;;;;;-2.74;93.25;99709.56;113155;238;40938;-49
2024/01/19 04:07:23;;;;;;;;;18.00;11.75;;;;;-2.75;93.30;99716.31;113143;238;40439;-52
2024/01/19 04:10:04;;;;;;;;;16.50;12.00;;;;;-2.86;93.21;99719.85;113111;239;40023;-52
2024/01/19 04:12:42;;;;;;;;;18.00;13.00;;;;;-2.93;93.22;99727.48;113113;238;39235;-51
2024/01/19 04:15:28;;;;;;;;;13.50;9.25;;;;;-2.96;93.14;99736.54;113131;238;39134;-50
2024/01/19 04:18:11;;;;;;;;;11.50;9.00;;;;;-3.02;93.15;99746.48;113154;239;39382;-49
2024/01/19 04:20:51;;;;;;;;;10.50;8.50;;;;;-2.96;93.14;99751.45;113127;239;40671;-49
2024/01/19 04:23:27;;;;;;;;;15.00;9.00;;;;;-2.95;93.07;99758.45;113148;238;41789;-51
2024/01/19 04:26:03;;;;;;;;;11.00;7.00;;;;;-2.93;92.98;99767.80;113203;237;40166;-51
2024/01/19 04:28:40;;;;;;;;;8.67;7.00;;;;;-2.94;92.96;99773.36;113166;238;39073;-50
2024/01/19 04:31:17;;;;;;;;;11.25;8.75;;;;;-2.94;92.92;99782.00;113202;237;39961;-51
2024/01/19 04:33:58;;;;;;;;;12.50;8.00;;;;;-2.96;93.00;99789.17;113121;237;40201;-51
2024/01/19 04:36:34;;;;;;;;;9.33;7.00;;;;;-2.95;92.94;99793.68;113108;238;39462;-53
2024/01/19 04:39:17;;;;;;;;;12.00;8.00;;;;;-2.98;93.00;99795.16;113103;237;39562;-53
2024/01/19 04:41:54;;;;;;;;;17.75;11.25;;;;;-2.95;92.94;99799.84;113146;237;39409;-53
2024/01/19 04:44:33;;;;;;;;;16.00;10.50;;;;;-2.98;92.94;99799.75;113065;237;40975;-53
2024/01/19 04:47:10;;;;;;;;;10.75;8.00;;;;;-2.97;92.92;99795.04;113160;237;39749;-53
2024/01/19 04:49:47;;;;;;;;;17.00;10.00;;;;;-2.99;92.90;99798.04;113087;237;40095;-53
2024/01/19 04:52:25;;;;;;;;;12.00;8.67;;;;;-3.03;93.00;99794.44;113140;237;39513;-49
2024/01/19 04:55:05;;;;;;;;;12.67;7.67;;;;;-2.97;92.88;99794.36;113178;237;39674;-49
2024/01/19 04:57:44;;;;;;;;;14.25;7.75;;;;;-2.92;92.84;99801.41;113154;237;39447;-50
2024/01/19 05:00:29;;;;;;;;;20.50;13.00;;;;;-2.84;92.76;99803.77;113154;238;39620;-50
2024/01/19 05:03:16;;;;;;;;;7.67;5.00;;;;;-2.81;92.67;99816.86;113157;237;40450;-50
2024/01/19 05:05:54;;;;;;;;;11.50;8.00;;;;;-2.83;92.65;99821.41;112757;237;478621;-50
2024/01/19 05:08:28;;;;;;;;;8.00;5.50;;;;;-2.79;92.50;99818.88;113191;237;38967;-54
2024/01/19 05:11:11;;;;;;;;;12.00;8.25;;;;;-2.82;92.42;99822.23;113156;237;39994;-54
2024/01/19 05:13:51;;;;;;;;;11.25;8.25;;;;;-2.82;92.51;99824.04;113179;237;39550;-50
2024/01/19 05:16:37;;;;;;;;;7.25;5.00;;;;;-2.86;92.37;99827.64;113182;237;39658;-49
2024/01/19 05:19:17;;;;;;;;;9.00;6.00;;;;;-2.94;92.37;99824.95;113159;238;39612;-53
2024/01/19 05:22:00;;;;;;;;;8.50;6.00;;;;;-3.07;92.40;99821.18;113152;237;40249;-50
2024/01/19 05:24:40;;;;;;;;;10.25;6.25;;;;;-3.05;92.24;99832.49;113113;237;40079;-50
2024/01/19 05:27:19;;;;;;;;;9.00;6.25;;;;;-3.04;92.02;99836.98;113131;237;39504;-53
2024/01/19 05:29:53;;;;;;;;;9.00;5.00;;;;;-3.08;91.87;99836.59;113109;237;38978;-53
2024/01/19 05:32:31;;;;;;;;;10.00;6.67;;;;;-3.05;91.90;99838.13;113128;238;40554;-51
2024/01/19 05:35:05;;;;;;;;;12.00;7.00;;;;;-3.01;91.86;99832.18;113123;237;39742;-51
2024/01/19 05:37:43;;;;;;;;;11.00;8.00;;;;;-3.05;91.92;99829.65;113154;238;40045;-53
2024/01/19 05:40:18;;;;;;;;;7.00;5.00;;;;;-3.04;91.94;99832.20;113117;237;39236;-53
2024/01/19 05:42:56;;;;;;;;;12.00;8.00;;;;;-2.98;91.69;99843.77;113131;237;40551;-53
2024/01/19 05:45:38;;;;;;;;;11.00;7.00;;;;;-3.07;91.89;99849.33;113122;237;39720;-53
2024/01/19 05:48:16;;;;;;;;;7.25;6.00;;;;;-3.06;91.97;99853.88;113179;237;41277;-51
2024/01/19 05:50:50;;;;;;;;;11.50;9.00;;;;;-3.05;91.77;99860.34;113142;237;40429;-51
2024/01/19 05:53:27;;;;;;;;;10.00;7.00;;;;;-3.04;91.61;99862.30;113305;237;39957;-50
2024/01/19 05:56:04;;;;;;;;;9.00;6.00;;;;;-3.06;91.70;99862.30;113249;237;39333;-49
2024/01/19 05:58:40;;;;;;;;;10.75;6.75;;;;;-3.10;91.73;99867.73;113209;237;39213;-52
2024/01/19 06:01:18;;;;;;;;;13.00;9.00;;;;;-3.13;91.64;99869.34;113191;237;39842;-52
2024/01/19 06:03:52;;;;;;;;;9.00;6.00;;;;;-3.19;91.72;99871.55;113203;237;39849;-52
2024/01/19 06:06:32;;;;;;;;;12.25;7.50;;;;;-3.23;91.89;99877.34;113165;237;40343;-52
2024/01/19 06:09:07;;;;;;;;;8.00;5.00;;;;;-3.21;91.88;99878.81;113115;237;38942;-52
2024/01/19 06:11:43;;;;;;;;;10.25;7.50;;;;;-3.19;91.69;99877.96;113152;237;38994;-51
2024/01/19 06:14:21;;;;;;;;;17.75;10.50;;;;;-3.19;91.50;99890.05;113105;237;39835;-51
2024/01/19 06:16:57;;;;;;;;;9.00;7.00;;;;;-3.20;91.53;99894.39;113117;237;39141;-54
2024/01/19 06:19:37;;;;;;;;;9.25;7.00;;;;;-3.19;91.53;99897.28;113109;237;39813;-55
2024/01/19 06:22:15;;;;;;;;;7.00;5.00;;;;;-3.18;91.44;99897.61;113087;237;39545;-51
2024/01/19 06:24:54;;;;;;;;;11.00;7.00;;;;;-3.19;91.13;99895.90;113114;237;39813;-51
2024/01/19 06:27:30;;;;;;;;;13.00;9.00;;;;;-3.23;91.04;99893.05;113162;237;39518;-49
2024/01/19 06:30:08;;;;;;;;;6.00;5.00;;;;;-3.31;90.98;99895.79;113182;237;39450;-50
2024/01/19 06:32:48;;;;;;;;;9.00;6.00;;;;;-3.40;90.90;99900.98;113183;237;40824;-54
2024/01/19 06:35:24;;;;;;;;;9.00;7.00;;;;;-3.51;90.89;99900.45;113128;237;39398;-55
2024/01/19 06:38:03;;;;;;;;;10.00;7.00;;;;;-3.64;90.81;99905.27;113174;237;39481;-53
2024/01/19 06:40:40;;;;;;;;;6.00;5.00;;;;;-3.70;90.65;99905.37;113151;237;39596;-52
2024/01/19 06:43:19;;;;;;;;;8.00;6.67;;;;;-3.79;90.58;99910.57;113221;237;39272;-51
2024/01/19 06:45:59;;;;;;;;;6.25;5.00;;;;;-3.92;90.66;99913.81;113190;237;39349;-51
2024/01/19 06:48:39;;;;;;;;;13.00;8.50;;;;;-4.01;90.80;99914.69;113182;237;40497;-54
2024/01/19 06:51:21;;;;;;;;;6.50;5.00;;;;;-4.09;90.78;99915.57;113148;237;39003;-54
2024/01/19 06:53:59;;;;;;;;;8.00;6.00;;;;;-4.18;90.69;99915.15;113161;237;39452;-55
2024/01/19 06:56:40;;;;;;;;;5.00;4.75;;;;;-4.29;90.81;99914.34;113161;237;39687;-54
2024/01/19 06:59:27;;;;;;;;;6.00;5.00;;;;;-4.40;90.89;99918.64;113120;237;40296;-55
2024/01/19 07:02:08;;;;;;;;;8.75;5.75;;;;;-4.47;91.00;99920.73;113115;237;39971;-51
2024/01/19 07:04:47;;;;;;;;;6.50;5.00;;;;;-4.51;91.03;99930.02;113139;237;39539;-51
2024/01/19 07:07:28;;;;;;;;;7.50;6.00;;;;;-4.55;91.03;99929.55;113077;238;39595;-51
2024/01/19 07:10:05;;;;;;;;;13.00;7.75;;;;;-4.52;91.16;99926.92;113086;237;40667;-51
2024/01/19 07:12:39;;;;;;;;;12.25;9.00;;;;;-4.54;91.12;99930.18;113164;237;39745;-50
2024/01/19 07:15:21;;;;;;;;;10.00;6.75;;;;;-4.52;91.19;99930.90;113082;237;39784;-49
2024/01/19 07:17:59;;;;;;;;;14.50;8.25;;;;;-4.44;91.30;99937.40;113173;238;40479;-50
2024/01/19 07:20:37;;;;;;;;;12.50;7.75;;;;;-4.37;91.32;99937.41;113121;237;39630;-49
2024/01/19 07:23:11;;;;;;;;;9.00;7.00;;;;;-4.29;91.44;99937.69;113130;237;41651;-54
2024/01/19 07:25:48;;;;;;;;;14.25;9.50;;;;;-4.20;91.46;99942.51;113149;237;40545;-66
2024/01/19 07:28:24;;;;;;;;;13.75;9.50;;;;;-4.08;91.52;99942.58;113201;237;39391;-56
2024/01/19 07:31:03;;;;;;;;;6.00;4.00;;;;;-3.95;91.36;99943.77;113218;237;40986;-55
2024/01/19 07:33:38;;;;;;;;;10.75;6.00;;;;;-3.92;91.35;99943.05;113178;238;40108;-50
2024/01/19 07:36:18;;;;;;;;;6.00;4.00;;;;;-3.84;91.44;99947.38;113176;237;39846;-50
2024/01/19 07:38:59;;;;;;;;;7.00;5.00;;;;;-3.79;91.38;99949.98;113166;237;39744;-52
2024/01/19 07:41:36;;;;;;;;;9.00;7.25;;;;;-3.72;91.15;99953.31;113129;237;39039;-51
2024/01/19 07:44:14;;;;;;;;;11.25;7.00;;;;;-3.70;91.17;99951.94;113133;237;41200;-50
2024/01/19 07:46:52;;;;;;;;;10.00;6.00;;;;;-3.71;91.26;99954.30;113131;237;39299;-52
2024/01/19 07:49:27;;;;;;;;;13.00;9.25;;;;;-3.66;91.26;99954.45;113123;237;40000;-51
2024/01/19 07:52:07;;;;;;;;;11.00;8.00;;;;;-3.60;91.12;99955.80;113180;237;40572;-52
2024/01/19 07:54:42;;;;;;;;;12.00;8.00;;;;;-3.57;91.31;99958.58;113333;236;39417;-51
2024/01/19 07:57:19;;;;;;;;;17.00;11.00;;;;;-3.48;91.25;99951.95;113223;237;39772;-51
2024/01/19 07:59:54;;;;;;;;;13.67;9.33;;;;;-3.36;91.26;99952.29;113214;237;40303;-55
2024/01/19 08:02:30;;;;;;;;;17.00;12.00;;;;;-3.22;91.11;99953.15;113218;237;40552;-50
2024/01/19 08:05:08;;;;;;;;;16.67;11.67;;;;;-3.06;91.05;99950.34;113242;237;40760;-50
2024/01/19 08:07:45;;;;;;;;;14.00;10.00;;;;;-2.82;90.96;99952.09;113284;237;40823;-49
2024/01/19 08:10:22;;;;;;;;;18.75;11.00;;;;;-2.60;90.59;99950.57;113317;237;40847;-49
2024/01/19 08:13:07;;;;;;;;;13.00;9.00;;;;;-2.42;90.54;99953.58;113277;237;39292;-50
2024/01/19 08:15:42;;;;;;;;;19.50;11.00;;;;;-2.21;90.29;99949.27;113157;237;41083;-51
2024/01/19 08:18:17;;;;;;;;;11.00;9.00;;;;;-2.02;89.94;99944.91;113231;237;40110;-53
2024/01/19 08:20:53;;;;;;;;;12.00;10.00;;;;;-1.99;89.74;99939.27;113204;237;40132;-54
2024/01/19 08:23:28;;;;;;;;;13.00;9.00;;;;;-1.93;89.56;99941.23;113249;237;40316;-54
2024/01/19 08:26:08;;;;;;;;;16.00;10.67;;;;;-1.91;89.59;99937.66;113192;237;39565;-54
2024/01/19 08:28:45;;;;;;;;;19.33;12.00;;;;;-1.86;89.23;99940.47;113229;237;40846;-52
2024/01/19 08:31:33;;;;;;;;;19.25;12.75;;;;;-1.88;89.26;99940.15;113188;237;39874;-53
2024/01/19 08:34:15;;;;;;;;;16.50;10.75;;;;;-1.89;88.95;99941.92;113208;237;40226;-53
2024/01/19 08:36:54;;;;;;;;;13.25;9.75;;;;;-1.90;88.61;99939.69;113145;237;39638;-53
2024/01/19 08:39:35;;;;;;;;;15.00;11.50;;;;;-1.85;88.22;99937.59;113175;237;39648;-50
2024/01/19 08:42:14;;;;;;;;;12.75;9.00;;;;;-1.79;88.25;99938.16;113172;237;40610;-49
2024/01/19 08:44:52;;;;;;;;;15.67;12.00;;;;;-1.76;88.33;99939.73;113191;237;39029;-54
2024/01/19 08:47:32;;;;;;;;;20.00;13.00;;;;;-1.69;88.25;99946.90;113211;237;39167;-53
2024/01/19 08:50:10;;;;;;;;;15.50;12.00;;;;;-1.58;88.45;99939.09;113196;237;39938;-53
2024/01/19 08:52:45;;;;;;;;;10.25;7.25;;;;;-1.49;88.13;99949.29;113221;237;40011;-53
2024/01/19 08:55:21;;;;;;;;;17.00;12.00;;;;;-1.51;87.67;99948.27;113122;237;40081;-53
2024/01/19 08:58:01;;;;;;;;;15.33;10.33;;;;;-1.49;87.40;99950.73;113218;237;40118;-52
2024/01/19 09:00:40;;;;;;;;;19.75;14.75;;;;;-1.49;87.08;99957.97;113320;237;39171;-52
2024/01/19 09:03:16;;;;;;;;;17.25;12.00;;;;;-1.52;86.69;99955.53;113120;237;38952;-49
2024/01/19 09:05:53;;;;;;;;;14.25;10.00;;;;;-1.55;86.78;99958.29;113104;237;39804;-50
2024/01/19 09:08:33;;;;;;;;;12.00;8.25;;;;;-1.50;87.01;99958.77;113252;237;39842;-54
2024/01/19 09:11:11;;;;;;;;;21.50;14.00;;;;;-1.27;87.18;99957.55;113163;237;39941;-55
2024/01/19 09:13:47;;;;;;;;;16.25;12.00;;;;;-0.98;86.88;99957.45;113290;237;39680;-49
2024/01/19 09:16:23;;;;;;;;;15.75;11.25;;;;;-0.67;86.65;99957.33;113294;237;40037;-49
2024/01/19 09:19:06;;;;;;;;;17.00;15.00;;;;;-0.22;85.90;99956.27;113202;237;39688;-55
2024/01/19 09:21:45;;;;;;;;;16.50;12.50;;;;;0.22;85.66;99960.69;113158;237;39517;-55
2024/01/19 09:24:22;;;;;;;;;16.67;13.33;;;;;0.54;84.96;99964.21;113162;237;39038;-51
2024/01/19 09:26:58;;;;;;;;;24.00;16.00;;;;;0.64;85.42;99968.08;113103;237;42635;-52
2024/01/19 09:29:36;;;;;;;;;19.33;16.00;;;;;0.85;84.16;99966.00;113229;237;39256;-50
2024/01/19 09:32:16;;;;;;;;;27.00;18.67;;;;;0.72;85.14;99963.65;113163;237;39728;-51
2024/01/19 09:34:56;;;;;;;;;23.75;16.00;;;;;1.06;84.72;99958.72;113192;237;40139;-54
2024/01/19 09:37:35;;;;;;;;;24.50;18.00;;;;;1.61;83.63;99964.55;113202;237;40144;-54
2024/01/19 09:40:15;;;;;;;;;23.00;16.00;;;;;1.85;83.63;99964.96;113202;237;39446;-55
2024/01/19 09:42:56;;;;;;;;;21.25;14.00;;;;;2.27;83.39;99967.86;113209;237;39469;-52
2024/01/19 09:45:42;;;;;;;;;22.00;15.00;;;;;2.46;83.15;99973.35;113161;237;39371;-55
2024/01/19 09:48:35;;;;;;;;;28.75;21.00;;;;;2.98;83.73;99972.83;113231;237;41033;-51
2024/01/19 09:51:14;;;;;;;;;23.25;18.00;;;;;3.59;80.36;99971.08;113194;237;39218;-49
2024/01/19 09:54:06;;;;;;;;;22.33;16.00;;;;;3.89;79.70;99981.70;113219;237;39131;-51
2024/01/19 09:56:43;;;;;;;;;31.00;22.75;;;;;3.90;80.36;99988.86;113172;237;41100;-51
2024/01/19 09:59:21;;;;;;;;;24.00;17.00;;;;;4.16;78.36;99992.54;113178;237;39817;-50
2024/01/19 10:01:58;;;;;;;;;25.25;17.25;;;;;3.96;75.53;99993.08;113168;237;39322;-50
2024/01/19 10:04:33;;;;;;;;;23.00;17.00;;;;;3.55;75.52;99996.41;113159;237;39568;-53
2024/01/19 10:07:13;;;;;;;;;28.75;18.00;;;;;2.95;76.14;100008.17;113117;237;40323;-52
2024/01/19 10:09:54;;;;;;;;;21.75;15.25;;;;;2.64;76.45;100008.33;113117;237;39385;-52
2024/01/19 10:12:33;;;;;;;;;28.00;21.00;;;;;2.98;76.87;100010.31;113144;237;39860;-49
2024/01/19 10:15:11;;;;;;;;;22.50;17.00;;;;;2.92;76.86;100013.21;113109;237;41388;-50
2024/01/19 10:17:46;;;;;;;;;24.00;17.25;;;;;2.74;77.48;100014.84;113166;237;38934;-49
2024/01/19 10:20:28;;;;;;;;;28.00;18.00;;;;;3.07;76.94;100008.84;113165;237;39758;-60
2024/01/19 10:23:24;;;;;;;;;28.00;19.33;;;;;3.26;77.08;100005.53;113181;237;39515;-51
2024/01/19 10:26:16;;;;;;;;;27.75;19.50;;;;;3.59;75.95;99998.09;113179;237;40113;-51
2024/01/19 10:28:50;;;;;;;;;21.00;16.00;;;;;3.73;75.22;99993.85;113138;237;39412;-50
2024/01/19 10:31:28;;;;;;;;;24.67;17.00;;;;;3.59;74.18;99997.27;113136;237;40027;-52
2024/01/19 10:34:06;;;;;;;;;19.00;15.00;;;;;3.19;74.03;100000.89;113099;237;39156;-52
2024/01/19 10:36:47;;;;;;;;;21.00;16.00;;;;;2.71;74.36;100002.36;113138;237;40101;-50
2024/01/19 10:39:25;;;;;;;;;26.00;18.00;;;;;2.38;74.39;99998.77;113178;237;40689;-54
2024/01/19 10:42:13;;;;;;;;;22.00;15.00;;;;;2.19;74.73;100001.17;113132;237;39800;-53
2024/01/19 10:44:48;;;;;;;;;21.75;16.50;;;;;2.06;74.87;100000.27;113167;237;40129;-53
2024/01/19 10:47:29;;;;;;;;;20.50;16.00;;;;;1.83;73.67;99999.60;113179;237;39426;-52
2024/01/19 10:50:14;;;;;;;;;19.75;14.00;;;;;1.58;75.06;100003.39;113158;237;40260;-53
2024/01/19 10:52:52;;;;;;;;;18.00;13.75;;;;;1.48;75.33;100001.84;113191;237;39692;-53
2024/01/19 10:55:29;;;;;;;;;18.50;13.50;;;;;1.36;75.75;99995.90;113136;237;39360;-53
2024/01/19 10:58:19;;;;;;;;;23.25;15.50;;;;;1.31;76.06;99994.86;113199;237;41045;-53
2024/01/19 11:01:12;;;;;;;;;18.00;12.75;;;;;1.03;76.31;99997.09;113136;237;39794;-55
2024/01/19 11:03:48;;;;;;;;;21.50;17.50;;;;;0.94;76.40;99996.52;113136;237;39923;-50
2024/01/19 11:06:25;;;;;;;;;15.75;12.50;;;;;0.92;76.72;99996.95;113110;237;39377;-54
2024/01/19 11:09:00;;;;;;;;;24.00;15.00;;;;;0.92;76.84;99994.61;113151;237;40472;-54
2024/01/19 11:11:46;;;;;;;;;18.75;15.00;;;;;0.93;76.90;99995.07;113116;237;39155;-54
2024/01/19 11:14:30;;;;;;;;;16.50;12.25;;;;;0.92;77.07;99997.48;113147;237;41132;-52
2024/01/19 11:17:09;;;;;;;;;18.25;14.00;;;;;0.93;77.06;100005.18;113189;237;40508;-52
2024/01/19 11:19:47;;;;;;;;;23.00;15.75;;;;;0.91;76.89;100003.77;113272;237;39188;-51
2024/01/19 11:22:23;;;;;;;;;20.00;13.33;;;;;0.82;77.21;100005.99;113242;237;40097;-51
2024/01/19 11:25:03;;;;;;;;;15.25;11.50;;;;;0.83;77.35;100008.52;113244;237;41522;-55
2024/01/19 11:27:50;;;;;;;;;20.50;15.25;;;;;0.85;77.38;100009.47;113213;237;39566;-50
2024/01/19 11:30:41;;;;;;;;;15.00;13.00;;;;;0.83;77.54;100013.19;113223;237;40696;-50
2024/01/19 11:33:21;;;;;;;;;25.00;16.25;;;;;0.84;77.59;100004.41;113250;237;40487;-50
2024/01/19 11:36:00;;;;;;;;;22.00;15.67;;;;;0.85;77.82;100009.75;113233;237;39425;-50
2024/01/19 11:38:48;;;;;;;;;15.50;12.00;;;;;0.91;77.86;100013.66;113254;237;39294;-51
2024/01/19 11:41:51;;;;;;;;;30.00;20.00;;;;;0.96;77.94;100018.40;113202;237;39901;-50
2024/01/19 11:44:45;;;;;;;;;18.00;13.25;;;;;0.99;78.00;100015.61;113244;237;40088;-50
2024/01/19 11:47:45;;;;;;;;;20.00;13.75;;;;;1.04;78.23;100018.00;113190;237;41480;-50
2024/01/19 11:50:40;;;;;;;;;19.25;13.75;;;;;1.03;77.88;100014.02;113224;237;39109;-50
2024/01/19 11:53:21;;;;;;;;;16.67;12.00;;;;;0.96;78.00;100014.10;113214;237;40460;-55
2024/01/19 11:56:21;;;;;;;;;19.00;12.75;;;;;0.92;77.98;100010.60;113163;237;39886;-55
2024/01/19 11:58:58;;;;;;;;;29.00;17.00;;;;;0.88;78.04;100012.76;113223;237;40593;-53
2024/01/19 12:01:39;;;;;;;;;21.75;14.00;;;;;0.87;77.99;100010.18;113229;237;39293;-53
2024/01/19 12:04:19;;;;;;;;;13.25;11.00;;;;;0.81;77.86;100019.70;113197;237;39347;-54
2024/01/19 12:07:06;;;;;;;;;19.00;14.00;;;;;0.74;78.05;100012.92;113233;237;40040;-55
2024/01/19 12:09:43;;;;;;;;;20.67;16.00;;;;;0.74;78.29;100008.48;113326;237;40120;-52
2024/01/19 12:12:20;;;;;;;;;16.25;11.25;;;;;0.73;78.37;100009.66;113253;237;39385;-52
2024/01/19 12:14:58;;;;;;;;;15.33;10.67;;;;;0.71;78.53;100006.64;113227;237;39260;-50
2024/01/19 12:17:36;;;;;;;;;17.00;13.00;;;;;0.68;78.46;100007.95;113255;237;39606;-54